sensor_id;sensor_type;location;lat;lon;timestamp;pressure;altitude;pressure_sealevel;temperature;humidity
59951;BME280;45812;53.540;9.774;2023-05-03T00:00:40;102825.16;;;5.70;89.25
59951;BME280;45812;53.540;9.774;2023-05-03T00:03:06;102825.16;;;5.70;89.33
59951;BME280;45812;53.540;9.774;2023-05-03T00:05:31;102831.47;;;5.67;89.28
59951;BME280;45812;53.540;9.774;2023-05-03T00:07:56;102832.31;;;5.68;89.17
59951;BME280;45812;53.540;9.774;2023-05-03T00:10:22;102835.88;;;5.67;89.08
59951;BME280;45812;53.540;9.774;2023-05-03T00:12:48;102819.88;;;5.70;89.46
59951;BME280;45812;53.540;9.774;2023-05-03T00:15:13;102825.94;;;5.72;89.70
59951;BME280;45812;53.540;9.774;2023-05-03T00:17:38;102825.84;;;5.73;89.68
59951;BME280;45812;53.540;9.774;2023-05-03T00:20:04;102821.41;;;5.74;89.63
59951;BME280;45812;53.540;9.774;2023-05-03T00:22:30;102827.63;;;5.73;89.34
59951;BME280;45812;53.540;9.774;2023-05-03T00:24:56;102831.88;;;5.75;89.21
59951;BME280;45812;53.540;9.774;2023-05-03T00:27:21;102830.28;;;5.73;89.08
59951;BME280;45812;53.540;9.774;2023-05-03T00:29:49;102838.13;;;5.74;89.26
59951;BME280;45812;53.540;9.774;2023-05-03T00:32:16;102832.06;;;5.72;89.52
59951;BME280;45812;53.540;9.774;2023-05-03T00:34:41;102845.44;;;5.69;89.37
59951;BME280;45812;53.540;9.774;2023-05-03T00:37:06;102842.13;;;5.66;89.23
59951;BME280;45812;53.540;9.774;2023-05-03T00:39:33;102833.41;;;5.64;89.70
59951;BME280;45812;53.540;9.774;2023-05-03T00:41:59;102833.50;;;5.62;90.08
59951;BME280;45812;53.540;9.774;2023-05-03T00:44:25;102831.88;;;5.60;89.83
59951;BME280;45812;53.540;9.774;2023-05-03T00:46:51;102823.41;;;5.53;90.71
59951;BME280;45812;53.540;9.774;2023-05-03T00:49:16;102832.09;;;5.55;90.31
59951;BME280;45812;53.540;9.774;2023-05-03T00:51:42;102831.41;;;5.52;90.30
59951;BME280;45812;53.540;9.774;2023-05-03T00:54:08;102832.50;;;5.47;90.13
59951;BME280;45812;53.540;9.774;2023-05-03T00:56:34;102838.03;;;5.43;89.69
59951;BME280;45812;53.540;9.774;2023-05-03T00:59:01;102823.22;;;5.40;90.27
59951;BME280;45812;53.540;9.774;2023-05-03T01:01:27;102828.72;;;5.36;90.68
59951;BME280;45812;53.540;9.774;2023-05-03T01:03:54;102829.72;;;5.33;91.06
59951;BME280;45812;53.540;9.774;2023-05-03T01:09:11;102827.94;;;5.34;91.90
59951;BME280;45812;53.540;9.774;2023-05-03T01:15:31;102829.13;;;5.28;92.16
59951;BME280;45812;53.540;9.774;2023-05-03T01:18:05;102834.63;;;5.24;92.60
59951;BME280;45812;53.540;9.774;2023-05-03T01:20:33;102834.78;;;5.21;92.39
59951;BME280;45812;53.540;9.774;2023-05-03T01:23:04;102844.63;;;5.17;92.72
59951;BME280;45812;53.540;9.774;2023-05-03T01:25:34;102845.72;;;5.13;93.13
59951;BME280;45812;53.540;9.774;2023-05-03T01:28:00;102833.47;;;5.12;92.78
59951;BME280;45812;53.540;9.774;2023-05-03T01:30:26;102837.66;;;5.16;93.14
59951;BME280;45812;53.540;9.774;2023-05-03T01:33:29;102839.44;;;5.15;93.30
59951;BME280;45812;53.540;9.774;2023-05-03T01:36:12;102844.03;;;5.12;92.78
59951;BME280;45812;53.540;9.774;2023-05-03T01:38:40;102845.88;;;5.10;92.21
59951;BME280;45812;53.540;9.774;2023-05-03T01:41:09;102853.88;;;5.08;93.09
59951;BME280;45812;53.540;9.774;2023-05-03T01:43:35;102850.47;;;5.06;93.60
59951;BME280;45812;53.540;9.774;2023-05-03T01:46:02;102856.59;;;5.07;94.03
59951;BME280;45812;53.540;9.774;2023-05-03T01:48:27;102841.88;;;5.03;93.76
59951;BME280;45812;53.540;9.774;2023-05-03T01:50:52;102849.78;;;5.03;93.58
59951;BME280;45812;53.540;9.774;2023-05-03T01:53:17;102855.91;;;5.03;93.95
59951;BME280;45812;53.540;9.774;2023-05-03T01:55:44;102853.19;;;5.05;94.29
59951;BME280;45812;53.540;9.774;2023-05-03T01:58:09;102852.09;;;5.09;94.58
59951;BME280;45812;53.540;9.774;2023-05-03T02:00:34;102852.41;;;5.20;94.00
59951;BME280;45812;53.540;9.774;2023-05-03T02:03:00;102846.59;;;5.31;93.68
59951;BME280;45812;53.540;9.774;2023-05-03T02:05:25;102845.19;;;5.41;92.92
59951;BME280;45812;53.540;9.774;2023-05-03T02:07:50;102859.69;;;5.50;92.41
59951;BME280;45812;53.540;9.774;2023-05-03T02:10:15;102847.09;;;5.55;92.10
59951;BME280;45812;53.540;9.774;2023-05-03T02:12:41;102849.34;;;5.62;91.78
59951;BME280;45812;53.540;9.774;2023-05-03T02:15:07;102852.59;;;5.67;91.33
59951;BME280;45812;53.540;9.774;2023-05-03T02:17:32;102858.56;;;5.71;91.14
59951;BME280;45812;53.540;9.774;2023-05-03T02:19:58;102868.75;;;5.78;90.53
59951;BME280;45812;53.540;9.774;2023-05-03T02:22:23;102866.47;;;5.88;89.82
59951;BME280;45812;53.540;9.774;2023-05-03T02:24:49;102874.88;;;5.96;89.59
59951;BME280;45812;53.540;9.774;2023-05-03T02:27:14;102871.91;;;6.02;88.91
59951;BME280;45812;53.540;9.774;2023-05-03T02:29:39;102875.91;;;6.10;88.30
59951;BME280;45812;53.540;9.774;2023-05-03T02:32:05;102879.19;;;6.15;87.84
59951;BME280;45812;53.540;9.774;2023-05-03T02:34:31;102868.53;;;6.16;88.04
59951;BME280;45812;53.540;9.774;2023-05-03T02:36:56;102876.47;;;6.16;88.13
59951;BME280;45812;53.540;9.774;2023-05-03T02:39:22;102872.31;;;6.11;88.28
59951;BME280;45812;53.540;9.774;2023-05-03T02:41:47;102878.47;;;6.11;88.55
59951;BME280;45812;53.540;9.774;2023-05-03T02:44:12;102870.53;;;6.11;88.74
59951;BME280;45812;53.540;9.774;2023-05-03T02:46:37;102875.75;;;6.13;89.11
59951;BME280;45812;53.540;9.774;2023-05-03T02:49:04;102875.69;;;6.14;88.77
59951;BME280;45812;53.540;9.774;2023-05-03T02:51:29;102880.25;;;6.11;88.94
59951;BME280;45812;53.540;9.774;2023-05-03T02:53:55;102876.84;;;6.08;88.22
59951;BME280;45812;53.540;9.774;2023-05-03T02:56:20;102872.41;;;6.09;88.21
59951;BME280;45812;53.540;9.774;2023-05-03T02:58:45;102881.19;;;6.10;88.34
59951;BME280;45812;53.540;9.774;2023-05-03T03:01:11;102878.34;;;6.14;88.69
59951;BME280;45812;53.540;9.774;2023-05-03T03:03:36;102871.94;;;6.18;88.18
59951;BME280;45812;53.540;9.774;2023-05-03T03:06:01;102878.84;;;6.21;88.07
59951;BME280;45812;53.540;9.774;2023-05-03T03:08:26;102878.66;;;6.24;87.91
59951;BME280;45812;53.540;9.774;2023-05-03T03:10:52;102880.19;;;6.28;88.50
59951;BME280;45812;53.540;9.774;2023-05-03T03:13:17;102873.03;;;6.30;88.49
59951;BME280;45812;53.540;9.774;2023-05-03T03:15:42;102877.31;;;6.32;89.06
59951;BME280;45812;53.540;9.774;2023-05-03T03:18:07;102881.72;;;6.32;89.42
59951;BME280;45812;53.540;9.774;2023-05-03T03:20:33;102873.97;;;6.29;89.33
59951;BME280;45812;53.540;9.774;2023-05-03T03:22:58;102873.13;;;6.28;89.86
59951;BME280;45812;53.540;9.774;2023-05-03T03:25:23;102879.53;;;6.24;89.71
59951;BME280;45812;53.540;9.774;2023-05-03T03:27:48;102873.38;;;6.24;90.13
59951;BME280;45812;53.540;9.774;2023-05-03T03:30:14;102870.81;;;6.22;90.94
59951;BME280;45812;53.540;9.774;2023-05-03T03:32:39;102871.84;;;6.20;90.59
59951;BME280;45812;53.540;9.774;2023-05-03T03:35:05;102871.31;;;6.13;90.83
59951;BME280;45812;53.540;9.774;2023-05-03T03:37:30;102875.75;;;6.13;90.98
59951;BME280;45812;53.540;9.774;2023-05-03T03:39:55;102874.97;;;6.11;90.90
59951;BME280;45812;53.540;9.774;2023-05-03T03:42:21;102873.19;;;6.11;91.17
59951;BME280;45812;53.540;9.774;2023-05-03T03:44:48;102870.44;;;6.13;90.92
59951;BME280;45812;53.540;9.774;2023-05-03T03:47:13;102877.47;;;6.14;91.06
59951;BME280;45812;53.540;9.774;2023-05-03T03:49:39;102878.16;;;6.17;91.21
59951;BME280;45812;53.540;9.774;2023-05-03T03:52:04;102880.53;;;6.22;91.11
59951;BME280;45812;53.540;9.774;2023-05-03T03:54:30;102876.97;;;6.23;90.71
59951;BME280;45812;53.540;9.774;2023-05-03T03:56:55;102868.19;;;6.22;90.54
59951;BME280;45812;53.540;9.774;2023-05-03T03:59:20;102867.31;;;6.22;91.26
59951;BME280;45812;53.540;9.774;2023-05-03T04:01:46;102869.97;;;6.22;91.36
59951;BME280;45812;53.540;9.774;2023-05-03T04:04:11;102869.13;;;6.21;91.91
59951;BME280;45812;53.540;9.774;2023-05-03T04:06:36;102869.97;;;6.22;92.18
59951;BME280;45812;53.540;9.774;2023-05-03T04:09:01;102862.97;;;6.21;92.47
59951;BME280;45812;53.540;9.774;2023-05-03T04:11:27;102877.81;;;6.23;92.22
59951;BME280;45812;53.540;9.774;2023-05-03T04:13:52;102865.28;;;6.27;92.25
59951;BME280;45812;53.540;9.774;2023-05-03T04:16:17;102872.25;;;6.28;91.99
59951;BME280;45812;53.540;9.774;2023-05-03T04:18:43;102873.97;;;6.29;92.36
59951;BME280;45812;53.540;9.774;2023-05-03T04:21:08;102876.44;;;6.32;93.09
59951;BME280;45812;53.540;9.774;2023-05-03T04:23:33;102872.63;;;6.37;92.27
59951;BME280;45812;53.540;9.774;2023-05-03T04:25:58;102869.63;;;6.44;91.91
59951;BME280;45812;53.540;9.774;2023-05-03T04:28:24;102877.31;;;6.48;91.54
59951;BME280;45812;53.540;9.774;2023-05-03T04:30:50;102875.38;;;6.52;91.49
59951;BME280;45812;53.540;9.774;2023-05-03T04:33:16;102876.91;;;6.56;91.88
59951;BME280;45812;53.540;9.774;2023-05-03T04:35:41;102883.81;;;6.58;91.21
59951;BME280;45812;53.540;9.774;2023-05-03T04:38:06;102879.19;;;6.62;91.40
59951;BME280;45812;53.540;9.774;2023-05-03T04:40:33;102888.41;;;6.71;91.77
59951;BME280;45812;53.540;9.774;2023-05-03T04:42:58;102882.94;;;6.74;91.11
59951;BME280;45812;53.540;9.774;2023-05-03T04:45:23;102884.47;;;6.78;90.75
59951;BME280;45812;53.540;9.774;2023-05-03T04:47:49;102892.06;;;6.84;90.53
59951;BME280;45812;53.540;9.774;2023-05-03T04:50:14;102893.44;;;6.91;90.66
59951;BME280;45812;53.540;9.774;2023-05-03T04:52:40;102892.88;;;7.00;90.85
59951;BME280;45812;53.540;9.774;2023-05-03T04:55:05;102896.72;;;7.10;90.57
59951;BME280;45812;53.540;9.774;2023-05-03T04:57:32;102903.19;;;7.20;90.49
59951;BME280;45812;53.540;9.774;2023-05-03T04:59:57;102907.19;;;7.27;89.56
59951;BME280;45812;53.540;9.774;2023-05-03T05:02:23;102913.16;;;7.31;89.03
59951;BME280;45812;53.540;9.774;2023-05-03T05:04:48;102910.44;;;7.33;88.78
59951;BME280;45812;53.540;9.774;2023-05-03T05:07:13;102914.59;;;7.37;88.73
59951;BME280;45812;53.540;9.774;2023-05-03T05:09:39;102915.16;;;7.42;88.83
59951;BME280;45812;53.540;9.774;2023-05-03T05:12:04;102924.56;;;7.47;88.59
59951;BME280;45812;53.540;9.774;2023-05-03T05:14:30;102917.09;;;7.54;88.59
59951;BME280;45812;53.540;9.774;2023-05-03T05:16:56;102914.34;;;7.55;88.41
59951;BME280;45812;53.540;9.774;2023-05-03T05:19:21;102917.19;;;7.52;89.08
59951;BME280;45812;53.540;9.774;2023-05-03T05:21:47;102919.66;;;7.55;88.78
59951;BME280;45812;53.540;9.774;2023-05-03T05:24:12;102920.22;;;7.60;88.71
59951;BME280;45812;53.540;9.774;2023-05-03T05:26:37;102927.94;;;7.65;88.68
59951;BME280;45812;53.540;9.774;2023-05-03T05:29:03;102934.47;;;7.74;88.61
59951;BME280;45812;53.540;9.774;2023-05-03T05:31:28;102931.28;;;7.83;88.24
59951;BME280;45812;53.540;9.774;2023-05-03T05:33:53;102921.03;;;7.91;87.46
59951;BME280;45812;53.540;9.774;2023-05-03T05:36:18;102925.09;;;7.97;86.59
59951;BME280;45812;53.540;9.774;2023-05-03T05:38:44;102929.88;;;8.06;87.47
59951;BME280;45812;53.540;9.774;2023-05-03T05:41:10;102930.88;;;8.17;87.48
59951;BME280;45812;53.540;9.774;2023-05-03T05:43:35;102935.53;;;8.28;86.73
59951;BME280;45812;53.540;9.774;2023-05-03T05:46:01;102945.53;;;8.39;85.34
59951;BME280;45812;53.540;9.774;2023-05-03T05:48:26;102944.00;;;8.49;84.76
59951;BME280;45812;53.540;9.774;2023-05-03T05:50:51;102938.97;;;8.59;84.98
59951;BME280;45812;53.540;9.774;2023-05-03T05:53:16;102938.16;;;8.71;84.87
59951;BME280;45812;53.540;9.774;2023-05-03T05:55:42;102939.75;;;8.88;84.13
59951;BME280;45812;53.540;9.774;2023-05-03T05:58:07;102928.97;;;9.03;83.47
59951;BME280;45812;53.540;9.774;2023-05-03T06:00:33;102937.84;;;9.17;83.31
59951;BME280;45812;53.540;9.774;2023-05-03T06:02:59;102945.78;;;9.31;82.55
59951;BME280;45812;53.540;9.774;2023-05-03T06:05:24;102947.06;;;9.38;82.03
59951;BME280;45812;53.540;9.774;2023-05-03T06:07:49;102956.03;;;9.50;80.95
59951;BME280;45812;53.540;9.774;2023-05-03T06:10:15;102942.94;;;9.59;80.94
59951;BME280;45812;53.540;9.774;2023-05-03T06:12:40;102953.41;;;9.75;79.92
59951;BME280;45812;53.540;9.774;2023-05-03T06:15:06;102951.91;;;9.84;80.34
59951;BME280;45812;53.540;9.774;2023-05-03T06:17:31;102955.66;;;9.94;80.65
59951;BME280;45812;53.540;9.774;2023-05-03T06:19:57;102954.06;;;10.04;80.95
59951;BME280;45812;53.540;9.774;2023-05-03T06:22:23;102951.50;;;10.15;80.82
59951;BME280;45812;53.540;9.774;2023-05-03T06:24:49;102960.59;;;10.25;79.45
59951;BME280;45812;53.540;9.774;2023-05-03T06:27:14;102956.19;;;10.37;78.11
59951;BME280;45812;53.540;9.774;2023-05-03T06:29:40;102959.56;;;10.52;76.30
59951;BME280;45812;53.540;9.774;2023-05-03T06:32:05;102964.03;;;10.64;76.65
59951;BME280;45812;53.540;9.774;2023-05-03T06:34:30;102963.00;;;10.78;76.28
59951;BME280;45812;53.540;9.774;2023-05-03T06:36:56;102964.69;;;10.91;74.20
59951;BME280;45812;53.540;9.774;2023-05-03T06:39:21;102963.91;;;11.02;72.76
59951;BME280;45812;53.540;9.774;2023-05-03T06:41:46;102954.25;;;11.12;70.10
59951;BME280;45812;53.540;9.774;2023-05-03T06:44:12;102951.78;;;11.22;68.23
59951;BME280;45812;53.540;9.774;2023-05-03T06:46:37;102957.53;;;11.40;67.08
59951;BME280;45812;53.540;9.774;2023-05-03T06:49:03;102957.34;;;11.54;66.30
59951;BME280;45812;53.540;9.774;2023-05-03T06:51:28;102962.34;;;11.70;64.54
59951;BME280;45812;53.540;9.774;2023-05-03T06:53:55;102955.16;;;11.83;59.95
59951;BME280;45812;53.540;9.774;2023-05-03T06:56:21;102953.47;;;11.93;58.39
59951;BME280;45812;53.540;9.774;2023-05-03T06:58:47;102957.13;;;12.03;56.81
59951;BME280;45812;53.540;9.774;2023-05-03T07:01:12;102960.41;;;12.18;57.04
59951;BME280;45812;53.540;9.774;2023-05-03T07:03:38;102970.63;;;12.35;56.05
59951;BME280;45812;53.540;9.774;2023-05-03T07:06:03;102970.38;;;12.50;54.88
59951;BME280;45812;53.540;9.774;2023-05-03T07:08:29;102962.72;;;12.67;52.91
59951;BME280;45812;53.540;9.774;2023-05-03T07:10:55;102965.84;;;12.84;52.54
59951;BME280;45812;53.540;9.774;2023-05-03T07:13:20;102968.72;;;13.03;52.34
59951;BME280;45812;53.540;9.774;2023-05-03T07:15:45;102972.06;;;13.16;50.75
59951;BME280;45812;53.540;9.774;2023-05-03T07:18:11;102968.69;;;13.25;49.57
59951;BME280;45812;53.540;9.774;2023-05-03T07:20:36;102971.94;;;13.29;49.15
59951;BME280;45812;53.540;9.774;2023-05-03T07:23:01;102975.00;;;13.24;46.73
59951;BME280;45812;53.540;9.774;2023-05-03T07:25:26;102976.69;;;13.25;47.21
59951;BME280;45812;53.540;9.774;2023-05-03T07:27:52;102974.75;;;13.16;47.87
59951;BME280;45812;53.540;9.774;2023-05-03T07:30:17;102972.13;;;13.05;47.17
59951;BME280;45812;53.540;9.774;2023-05-03T07:32:42;102970.66;;;13.01;46.53
59951;BME280;45812;53.540;9.774;2023-05-03T07:35:08;102975.19;;;12.89;45.96
59951;BME280;45812;53.540;9.774;2023-05-03T07:37:33;102982.41;;;12.66;45.01
59951;BME280;45812;53.540;9.774;2023-05-03T07:39:58;102979.13;;;12.52;44.12
59951;BME280;45812;53.540;9.774;2023-05-03T07:42:24;102982.53;;;12.54;43.54
59951;BME280;45812;53.540;9.774;2023-05-03T07:44:49;102973.88;;;12.72;43.98
59951;BME280;45812;53.540;9.774;2023-05-03T07:47:15;102981.34;;;13.01;44.29
59951;BME280;45812;53.540;9.774;2023-05-03T07:49:40;102964.31;;;13.24;43.61
59951;BME280;45812;53.540;9.774;2023-05-03T07:52:05;102967.84;;;13.46;42.96
59951;BME280;45812;53.540;9.774;2023-05-03T07:54:30;102961.59;;;13.56;43.61
59951;BME280;45812;53.540;9.774;2023-05-03T07:56:56;102971.44;;;13.56;43.26
59951;BME280;45812;53.540;9.774;2023-05-03T07:59:21;102971.44;;;13.56;42.98
59951;BME280;45812;53.540;9.774;2023-05-03T08:01:46;102966.09;;;13.56;43.03
59951;BME280;45812;53.540;9.774;2023-05-03T08:04:11;102964.41;;;13.55;43.36
59951;BME280;45812;53.540;9.774;2023-05-03T08:06:36;102971.06;;;13.40;42.91
59951;BME280;45812;53.540;9.774;2023-05-03T08:09:03;102973.06;;;13.26;43.48
59951;BME280;45812;53.540;9.774;2023-05-03T08:11:30;102976.63;;;13.37;42.28
59951;BME280;45812;53.540;9.774;2023-05-03T08:13:56;102972.22;;;13.47;41.74
59951;BME280;45812;53.540;9.774;2023-05-03T08:16:21;102965.34;;;13.65;41.38
59951;BME280;45812;53.540;9.774;2023-05-03T08:18:46;102970.09;;;13.82;41.84
59951;BME280;45812;53.540;9.774;2023-05-03T08:21:11;102968.66;;;13.78;41.34
59951;BME280;45812;53.540;9.774;2023-05-03T08:23:37;102978.66;;;13.76;41.99
59951;BME280;45812;53.540;9.774;2023-05-03T08:26:04;102984.25;;;13.73;40.92
59951;BME280;45812;53.540;9.774;2023-05-03T08:28:29;102981.56;;;13.52;41.22
59951;BME280;45812;53.540;9.774;2023-05-03T08:30:55;102975.63;;;13.49;41.10
59951;BME280;45812;53.540;9.774;2023-05-03T08:33:21;102966.31;;;13.64;41.40
59951;BME280;45812;53.540;9.774;2023-05-03T08:35:46;102974.22;;;13.86;41.01
59951;BME280;45812;53.540;9.774;2023-05-03T08:38:11;102967.28;;;14.05;40.88
59951;BME280;45812;53.540;9.774;2023-05-03T08:40:38;102969.19;;;14.23;40.38
59951;BME280;45812;53.540;9.774;2023-05-03T08:43:09;102974.63;;;14.43;40.55
59951;BME280;45812;53.540;9.774;2023-05-03T08:45:35;102973.47;;;14.66;40.33
59951;BME280;45812;53.540;9.774;2023-05-03T08:48:01;102977.06;;;14.76;39.10
59951;BME280;45812;53.540;9.774;2023-05-03T08:50:28;102974.94;;;14.80;38.91
59951;BME280;45812;53.540;9.774;2023-05-03T08:52:54;102967.59;;;14.82;38.65
59951;BME280;45812;53.540;9.774;2023-05-03T08:55:20;102978.88;;;14.76;38.98
59951;BME280;45812;53.540;9.774;2023-05-03T08:57:45;102975.34;;;14.75;38.71
59951;BME280;45812;53.540;9.774;2023-05-03T09:00:11;102979.19;;;14.82;39.56
59951;BME280;45812;53.540;9.774;2023-05-03T09:02:37;102985.28;;;14.94;39.68
59951;BME280;45812;53.540;9.774;2023-05-03T09:08:09;102987.94;;;14.84;39.15
59951;BME280;45812;53.540;9.774;2023-05-03T09:10:37;102988.06;;;14.73;39.13
59951;BME280;45812;53.540;9.774;2023-05-03T09:13:03;102994.78;;;14.68;39.78
59951;BME280;45812;53.540;9.774;2023-05-03T09:15:29;103000.88;;;14.70;39.93
59951;BME280;45812;53.540;9.774;2023-05-03T09:20:38;102998.25;;;14.49;40.11
59951;BME280;45812;53.540;9.774;2023-05-03T09:23:05;102997.47;;;14.68;40.18
59951;BME280;45812;53.540;9.774;2023-05-03T09:25:49;102995.69;;;14.78;39.09
59951;BME280;45812;53.540;9.774;2023-05-03T09:28:16;102996.16;;;14.93;39.37
59951;BME280;45812;53.540;9.774;2023-05-03T09:30:43;102988.72;;;15.25;39.48
59951;BME280;45812;53.540;9.774;2023-05-03T09:33:08;102986.19;;;15.53;37.55
59951;BME280;45812;53.540;9.774;2023-05-03T09:35:36;102999.06;;;15.68;37.78
59951;BME280;45812;53.540;9.774;2023-05-03T09:38:02;102995.81;;;15.65;37.71
59951;BME280;45812;53.540;9.774;2023-05-03T09:40:27;102993.09;;;15.55;37.83
59951;BME280;45812;53.540;9.774;2023-05-03T09:43:11;102990.56;;;15.54;37.73
59951;BME280;45812;53.540;9.774;2023-05-03T09:45:38;102991.41;;;15.44;37.58
59951;BME280;45812;53.540;9.774;2023-05-03T09:48:05;103000.56;;;15.42;37.57
59951;BME280;45812;53.540;9.774;2023-05-03T09:50:32;102997.03;;;15.41;37.54
59951;BME280;45812;53.540;9.774;2023-05-03T09:53:00;102993.09;;;15.55;37.64
59951;BME280;45812;53.540;9.774;2023-05-03T09:55:30;102988.63;;;15.65;36.10
59951;BME280;45812;53.540;9.774;2023-05-03T09:57:56;102991.00;;;15.68;36.36
59951;BME280;45812;53.540;9.774;2023-05-03T10:00:21;102991.13;;;15.86;36.84
59951;BME280;45812;53.540;9.774;2023-05-03T10:02:49;102989.44;;;16.32;35.49
59951;BME280;45812;53.540;9.774;2023-05-03T10:05:20;102992.81;;;16.71;35.42
59951;BME280;45812;53.540;9.774;2023-05-03T10:07:49;102988.81;;;17.03;33.78
59951;BME280;45812;53.540;9.774;2023-05-03T10:10:14;102980.84;;;17.29;33.10
59951;BME280;45812;53.540;9.774;2023-05-03T10:12:40;102971.69;;;17.39;32.12
59951;BME280;45812;53.540;9.774;2023-05-03T10:15:07;102972.31;;;17.69;31.69
59951;BME280;45812;53.540;9.774;2023-05-03T10:17:36;102981.63;;;18.26;32.02
59951;BME280;45812;53.540;9.774;2023-05-03T10:20:13;102979.31;;;18.65;30.63
59951;BME280;45812;53.540;9.774;2023-05-03T10:23:05;102979.50;;;18.72;30.08
59951;BME280;45812;53.540;9.774;2023-05-03T10:25:35;102973.97;;;18.48;31.02
59951;BME280;45812;53.540;9.774;2023-05-03T10:28:04;102976.34;;;18.16;31.32
59951;BME280;45812;53.540;9.774;2023-05-03T10:30:35;102969.03;;;18.35;31.41
59951;BME280;45812;53.540;9.774;2023-05-03T10:33:30;102975.59;;;18.66;30.96
59951;BME280;45812;53.540;9.774;2023-05-03T10:35:56;102956.34;;;19.20;30.36
59951;BME280;45812;53.540;9.774;2023-05-03T10:38:25;102953.66;;;19.52;29.64
59951;BME280;45812;53.540;9.774;2023-05-03T10:40:51;102952.16;;;19.74;29.42
59951;BME280;45812;53.540;9.774;2023-05-03T10:46:08;102957.19;;;19.36;29.79
59951;BME280;45812;53.540;9.774;2023-05-03T10:48:42;102949.28;;;19.35;30.75
59951;BME280;45812;53.540;9.774;2023-05-03T10:53:53;102952.75;;;20.09;29.19
59951;BME280;45812;53.540;9.774;2023-05-03T10:56:18;102962.16;;;20.21;29.07
59951;BME280;45812;53.540;9.774;2023-05-03T10:58:45;102950.47;;;21.30;28.10
59951;BME280;45812;53.540;9.774;2023-05-03T11:01:14;102952.31;;;22.49;25.96
59951;BME280;45812;53.540;9.774;2023-05-03T11:03:57;102951.84;;;23.81;25.16
59951;BME280;45812;53.540;9.774;2023-05-03T11:06:36;102953.53;;;25.79;22.74
59951;BME280;45812;53.540;9.774;2023-05-03T11:09:04;102948.41;;;26.73;20.82
59951;BME280;45812;53.540;9.774;2023-05-03T11:11:31;102945.38;;;27.26;20.82
59951;BME280;45812;53.540;9.774;2023-05-03T11:13:57;102943.91;;;28.35;19.97
59951;BME280;45812;53.540;9.774;2023-05-03T11:16:22;102953.44;;;29.11;19.43
59951;BME280;45812;53.540;9.774;2023-05-03T11:18:48;102948.97;;;28.98;19.19
59951;BME280;45812;53.540;9.774;2023-05-03T11:21:13;102950.03;;;28.97;18.67
59951;BME280;45812;53.540;9.774;2023-05-03T11:23:40;102958.41;;;27.56;20.20
59951;BME280;45812;53.540;9.774;2023-05-03T11:26:07;102951.81;;;26.04;20.67
59951;BME280;45812;53.540;9.774;2023-05-03T11:28:32;102947.00;;;24.53;22.78
59951;BME280;45812;53.540;9.774;2023-05-03T11:30:57;102946.41;;;23.60;23.51
59951;BME280;45812;53.540;9.774;2023-05-03T11:33:23;102958.34;;;23.16;24.22
59951;BME280;45812;53.540;9.774;2023-05-03T11:35:48;102949.94;;;22.90;24.43
59951;BME280;45812;53.540;9.774;2023-05-03T11:38:13;102950.91;;;22.53;24.70
59951;BME280;45812;53.540;9.774;2023-05-03T11:40:39;102953.44;;;22.54;25.25
59951;BME280;45812;53.540;9.774;2023-05-03T11:43:05;102943.81;;;22.37;25.47
59951;BME280;45812;53.540;9.774;2023-05-03T11:45:41;102950.59;;;21.36;26.52
59951;BME280;45812;53.540;9.774;2023-05-03T11:48:08;102956.34;;;20.88;27.13
59951;BME280;45812;53.540;9.774;2023-05-03T11:50:47;102943.81;;;21.55;26.97
59951;BME280;45812;53.540;9.774;2023-05-03T11:53:15;102958.75;;;24.19;23.69
59951;BME280;45812;53.540;9.774;2023-05-03T11:55:42;102954.88;;;24.00;23.07
59951;BME280;45812;53.540;9.774;2023-05-03T11:58:11;102947.59;;;23.79;22.88
59951;BME280;45812;53.540;9.774;2023-05-03T12:00:36;102950.25;;;23.23;24.38
59951;BME280;45812;53.540;9.774;2023-05-03T12:03:02;102936.31;;;25.12;23.28
59951;BME280;45812;53.540;9.774;2023-05-03T12:05:27;102937.44;;;28.78;19.89
59951;BME280;45812;53.540;9.774;2023-05-03T12:07:54;102928.03;;;31.34;17.16
59951;BME280;45812;53.540;9.774;2023-05-03T12:10:20;102928.72;;;32.68;15.87
59951;BME280;45812;53.540;9.774;2023-05-03T12:12:55;102922.94;;;34.13;14.91
59951;BME280;45812;53.540;9.774;2023-05-03T12:15:32;102924.47;;;34.51;14.40
59951;BME280;45812;53.540;9.774;2023-05-03T12:18:00;102923.47;;;35.33;13.24
59951;BME280;45812;53.540;9.774;2023-05-03T12:20:28;102918.19;;;36.37;11.99
59951;BME280;45812;53.540;9.774;2023-05-03T12:22:59;102920.22;;;36.65;12.29
59951;BME280;45812;53.540;9.774;2023-05-03T12:25:26;102923.44;;;37.17;11.89
59951;BME280;45812;53.540;9.774;2023-05-03T12:27:53;102917.31;;;37.49;11.87
59951;BME280;45812;53.540;9.774;2023-05-03T12:30:19;102904.03;;;35.64;12.83
59951;BME280;45812;53.540;9.774;2023-05-03T12:32:44;102912.63;;;32.55;14.25
59951;BME280;45812;53.540;9.774;2023-05-03T12:35:09;102907.56;;;31.14;15.89
59951;BME280;45812;53.540;9.774;2023-05-03T12:37:35;102921.88;;;32.97;14.62
59951;BME280;45812;53.540;9.774;2023-05-03T12:40:01;102904.84;;;34.52;13.24
59951;BME280;45812;53.540;9.774;2023-05-03T12:42:27;102913.38;;;35.93;12.17
59951;BME280;45812;53.540;9.774;2023-05-03T12:44:56;102905.94;;;37.16;11.33
59951;BME280;45812;53.540;9.774;2023-05-03T12:47:21;102895.16;;;38.53;11.38
59951;BME280;45812;53.540;9.774;2023-05-03T12:49:46;102899.88;;;39.50;10.42
59951;BME280;45812;53.540;9.774;2023-05-03T12:52:12;102891.47;;;39.23;10.00
59951;BME280;45812;53.540;9.774;2023-05-03T12:54:37;102892.94;;;36.83;11.28
59951;BME280;45812;53.540;9.774;2023-05-03T12:57:03;102895.13;;;34.40;12.83
59951;BME280;45812;53.540;9.774;2023-05-03T12:59:29;102897.81;;;34.14;13.16
59951;BME280;45812;53.540;9.774;2023-05-03T13:01:54;102898.53;;;35.33;12.69
59951;BME280;45812;53.540;9.774;2023-05-03T13:04:20;102887.56;;;36.52;11.99
59951;BME280;45812;53.540;9.774;2023-05-03T13:06:45;102897.59;;;37.21;10.86
59951;BME280;45812;53.540;9.774;2023-05-03T13:09:11;102885.53;;;37.02;11.59